createdAt,value
2023-05-11T00:02:25.740Z,48.88
2023-05-11T00:04:58.206Z,48.98
2023-05-11T00:07:29.951Z,49.26
2023-05-11T00:10:01.569Z,48.64
2023-05-11T00:12:33.753Z,48.25
2023-05-11T00:15:06.447Z,48.35
2023-05-11T00:17:36.652Z,48.13
2023-05-11T00:20:10.625Z,48.16
2023-05-11T00:22:44.750Z,48.44
2023-05-11T00:25:16.971Z,48.57
2023-05-11T00:27:48.654Z,48.12
2023-05-11T00:30:21.111Z,48.21
2023-05-11T00:32:53.821Z,47.94
2023-05-11T00:35:25.759Z,47.79
2023-05-11T00:37:58.278Z,47.71
2023-05-11T00:40:32.499Z,47.65
2023-05-11T00:43:04.211Z,47.69
2023-05-11T00:45:37.458Z,47.54
2023-05-11T00:48:10.748Z,47.73
2023-05-11T00:50:42.447Z,47.45
2023-05-11T00:53:14.595Z,47.39
2023-05-11T00:55:46.803Z,47.47
2023-05-11T00:58:18.722Z,47.57
2023-05-11T01:00:50.544Z,47.60
2023-05-11T01:03:22.457Z,48.08
2023-05-11T01:06:04.297Z,48.15
2023-05-11T01:08:43.240Z,47.84
2023-05-11T01:11:21.825Z,47.94
2023-05-11T01:13:57.782Z,47.90
2023-05-11T01:16:33.385Z,47.90
2023-05-11T01:19:12.366Z,48.14
2023-05-11T01:21:45.736Z,47.87
2023-05-11T01:24:33.294Z,48.22
2023-05-11T01:27:32.976Z,48.01
2023-05-11T01:30:27.461Z,47.96
2023-05-11T01:33:04.902Z,48.26
2023-05-11T01:35:40.082Z,47.89
2023-05-11T01:38:15.534Z,47.69
2023-05-11T01:40:53.270Z,47.85
2023-05-11T01:43:27.714Z,47.80
2023-05-11T01:46:02.945Z,47.72
2023-05-11T01:48:40.079Z,47.70
2023-05-11T01:51:12.768Z,47.71
2023-05-11T01:53:47.642Z,47.98
2023-05-11T01:56:21.087Z,47.92
2023-05-11T01:58:55.195Z,48.18
2023-05-11T02:01:28.510Z,47.94
2023-05-11T02:04:03.945Z,48.19
2023-05-11T02:06:39.088Z,48.14
2023-05-11T02:09:13.887Z,48.47
2023-05-11T02:11:50.545Z,48.25
2023-05-11T02:14:25.527Z,48.26
2023-05-11T02:16:58.995Z,48.27
2023-05-11T02:19:32.864Z,48.40
2023-05-11T02:22:07.272Z,48.96
2023-05-11T02:24:39.851Z,48.83
2023-05-11T02:27:12.915Z,48.70
2023-05-11T02:29:44.602Z,48.56
2023-05-11T02:32:21.069Z,48.65
2023-05-11T02:35:01.890Z,48.76
2023-05-11T02:37:40.888Z,48.81
2023-05-11T02:40:19.404Z,49.06
2023-05-11T02:42:59.920Z,49.06
2023-05-11T02:45:35.301Z,49.13
2023-05-11T02:48:12.320Z,48.94
2023-05-11T02:50:45.052Z,49.25
2023-05-11T02:53:17.350Z,49.40
2023-05-11T02:55:51.590Z,49.50
2023-05-11T02:58:24.461Z,49.40
2023-05-11T03:01:03.840Z,49.55
2023-05-11T03:03:36.112Z,49.70
2023-05-11T03:06:08.482Z,49.93
2023-05-11T03:08:41.799Z,49.90
2023-05-11T03:11:14.853Z,50.07
2023-05-11T03:13:47.038Z,49.95
2023-05-11T03:16:21.529Z,50.05
2023-05-11T03:18:55.498Z,50.17
2023-05-11T03:21:29.509Z,50.20
2023-05-11T03:24:02.496Z,50.57
2023-05-11T03:26:37.938Z,50.43
2023-05-11T03:29:11.143Z,50.43
2023-05-11T03:31:44.447Z,50.59
2023-05-11T03:34:14.766Z,50.48
2023-05-11T03:36:49.022Z,50.73
2023-05-11T03:39:22.446Z,50.60
2023-05-11T03:41:55.590Z,50.72
2023-05-11T03:44:29.041Z,50.69
2023-05-11T03:47:04.796Z,50.82
2023-05-11T03:49:39.274Z,50.95
2023-05-11T03:52:11.503Z,50.97
2023-05-11T03:54:42.346Z,51.23
2023-05-11T03:57:16.492Z,51.33
2023-05-11T03:59:48.930Z,51.00
2023-05-11T04:02:22.008Z,50.96
2023-05-11T04:04:55.521Z,51.15
2023-05-11T04:07:28.200Z,51.28
2023-05-11T04:10:00.060Z,51.23
2023-05-11T04:12:31.955Z,52.06
2023-05-11T04:15:04.548Z,51.99
2023-05-11T04:17:36.845Z,51.78
2023-05-11T04:20:10.371Z,51.71
2023-05-11T04:22:42.361Z,51.33
2023-05-11T04:25:14.708Z,51.48
2023-05-11T04:27:46.896Z,51.21
2023-05-11T04:30:20.704Z,51.14
2023-05-11T04:32:52.928Z,51.11
2023-05-11T04:35:26.089Z,51.14
2023-05-11T04:37:57.843Z,51.09
2023-05-11T04:40:29.812Z,51.16
2023-05-11T04:43:01.541Z,51.18
2023-05-11T04:45:33.732Z,51.21
2023-05-11T04:48:06.484Z,51.59
2023-05-11T04:50:39.352Z,51.52
2023-05-11T04:53:13.869Z,51.46
2023-05-11T04:55:46.351Z,51.23
2023-05-11T04:58:18.708Z,51.26
2023-05-11T05:00:50.809Z,51.31
2023-05-11T05:03:24.639Z,51.21
2023-05-11T05:05:56.468Z,51.17
2023-05-11T05:08:28.243Z,51.12
2023-05-11T05:11:00.040Z,51.20
2023-05-11T05:13:32.058Z,50.83
2023-05-11T05:16:03.797Z,52.67
2023-05-11T05:18:35.704Z,54.06
2023-05-11T05:21:08.113Z,53.07
2023-05-11T05:23:39.930Z,51.54
2023-05-11T05:26:11.778Z,51.29
2023-05-11T05:28:44.810Z,51.55
2023-05-11T05:31:16.984Z,51.37
2023-05-11T05:33:49.706Z,51.29
2023-05-11T05:36:22.880Z,51.33
2023-05-11T05:38:54.927Z,51.25
2023-05-11T05:41:28.021Z,51.37
2023-05-11T05:43:59.962Z,51.22
2023-05-11T05:46:32.244Z,51.47
2023-05-11T05:49:04.513Z,51.42
2023-05-11T05:51:36.350Z,51.58
2023-05-11T05:54:08.941Z,51.88
2023-05-11T05:56:40.923Z,52.10
2023-05-11T05:59:14.397Z,51.60
2023-05-11T06:01:47.487Z,51.35
2023-05-11T06:04:20.343Z,51.49
2023-05-11T06:06:55.779Z,52.21
2023-05-11T06:09:27.535Z,51.91
2023-05-11T06:11:59.400Z,51.81
2023-05-11T06:14:31.622Z,52.03
2023-05-11T06:17:03.441Z,52.18
2023-05-11T06:19:35.466Z,51.82
2023-05-11T06:22:07.902Z,52.64
2023-05-11T06:24:39.989Z,52.66
2023-05-11T06:27:12.496Z,51.78
2023-05-11T06:29:45.081Z,51.70
2023-05-11T06:32:17.941Z,51.36
2023-05-11T06:34:50.867Z,51.27
2023-05-11T06:37:22.781Z,52.01
2023-05-11T06:39:56.028Z,51.35
2023-05-11T06:42:28.007Z,51.84
2023-05-11T06:45:11.827Z,51.85
2023-05-11T06:47:46.436Z,51.22
2023-05-11T06:50:20.860Z,51.40
2023-05-11T06:52:54.350Z,51.50
2023-05-11T06:55:27.693Z,52.55
2023-05-11T06:57:59.743Z,51.65
2023-05-11T07:00:31.697Z,51.39
2023-05-11T07:03:03.652Z,52.20
2023-05-11T07:05:36.444Z,51.42
2023-05-11T07:08:08.529Z,51.21
2023-05-11T07:10:41.604Z,50.93
2023-05-11T07:13:14.132Z,50.85
2023-05-11T07:15:45.907Z,51.02
2023-05-11T07:18:18.033Z,51.30
2023-05-11T07:21:00.802Z,50.79
2023-05-11T07:23:37.608Z,50.99
2023-05-11T07:26:09.878Z,50.81
2023-05-11T07:28:41.641Z,50.78
2023-05-11T07:31:13.908Z,50.71
2023-05-11T07:33:45.697Z,50.84
2023-05-11T07:36:17.504Z,50.65
2023-05-11T07:38:49.216Z,51.02
2023-05-11T07:41:23.022Z,51.02
2023-05-11T07:43:55.198Z,50.83
2023-05-11T07:46:26.951Z,50.98
2023-05-11T07:49:11.208Z,50.84
2023-05-11T07:51:47.403Z,50.58
2023-05-11T07:54:21.566Z,50.59
2023-05-11T07:56:54.098Z,51.15
2023-05-11T07:59:26.033Z,53.90
2023-05-11T08:01:58.264Z,53.54
2023-05-11T08:04:30.537Z,53.73
2023-05-11T08:07:02.347Z,54.05
2023-05-11T08:09:34.385Z,52.23
2023-05-11T08:12:06.518Z,51.42
2023-05-11T08:14:38.746Z,53.38
2023-05-11T08:17:10.882Z,51.62
2023-05-11T08:19:42.687Z,51.46
2023-05-11T08:22:14.728Z,52.81
2023-05-11T08:24:46.973Z,51.33
2023-05-11T08:27:18.808Z,52.33
2023-05-11T08:29:52.110Z,52.10
2023-05-11T08:32:24.147Z,50.40
2023-05-11T08:34:56.134Z,49.45
2023-05-11T08:37:28.361Z,48.84
2023-05-11T08:40:00.200Z,50.18
2023-05-11T08:42:34.215Z,50.26
2023-05-11T08:45:07.982Z,50.83
2023-05-11T08:47:40.577Z,50.34
2023-05-11T08:50:11.920Z,51.07
2023-05-11T08:52:44.210Z,49.21
2023-05-11T08:55:16.468Z,49.89
2023-05-11T08:57:48.070Z,48.88
2023-05-11T09:00:23.215Z,49.60
2023-05-11T09:02:56.453Z,49.20
2023-05-11T09:05:29.565Z,48.28
2023-05-11T09:08:05.085Z,49.60
2023-05-11T09:10:38.656Z,49.53
2023-05-11T09:13:10.683Z,49.33
2023-05-11T09:15:43.500Z,48.73
2023-05-11T09:18:14.357Z,48.41
2023-05-11T09:20:47.244Z,49.22
2023-05-11T09:23:20.489Z,49.35
2023-05-11T09:25:52.613Z,49.37
2023-05-11T09:31:05.882Z,47.20
2023-05-11T09:33:38.066Z,47.36
2023-05-11T09:36:23.868Z,46.26
2023-05-11T09:38:57.316Z,46.23
2023-05-11T09:41:34.703Z,45.43
2023-05-11T09:44:14.643Z,45.91
2023-05-11T09:46:47.880Z,46.61
2023-05-11T09:49:19.835Z,46.97
2023-05-11T09:52:03.883Z,45.62
2023-05-11T09:54:44.671Z,45.18
2023-05-11T09:57:30.556Z,45.24
2023-05-11T10:00:05.307Z,44.40
2023-05-11T10:02:44.477Z,44.65
2023-05-11T10:05:16.811Z,44.24
2023-05-11T10:08:00.054Z,42.97
2023-05-11T10:10:33.459Z,43.06
2023-05-11T10:13:05.634Z,42.84
2023-05-11T10:15:38.994Z,42.46
2023-05-11T10:18:11.104Z,43.24
2023-05-11T10:20:43.304Z,43.25
2023-05-11T10:23:15.560Z,42.20
2023-05-11T10:25:47.885Z,41.06
2023-05-11T10:28:20.861Z,40.33
2023-05-11T10:30:54.583Z,40.66
2023-05-11T10:33:27.016Z,41.28
2023-05-11T10:35:59.581Z,40.34
2023-05-11T10:38:29.856Z,40.50
2023-05-11T10:41:13.393Z,40.45
2023-05-11T10:44:04.826Z,40.04
2023-05-11T10:46:55.098Z,38.88
2023-05-11T10:49:53.327Z,38.37
2023-05-11T10:52:45.454Z,38.67
2023-05-11T10:55:23.595Z,37.83
2023-05-11T10:58:10.604Z,37.73
2023-05-11T11:01:14.022Z,37.85
2023-05-11T11:03:59.341Z,37.52
2023-05-11T11:06:31.876Z,37.29
2023-05-11T11:09:07.864Z,37.29
2023-05-11T11:11:45.963Z,38.06
2023-05-11T11:14:19.264Z,37.55
2023-05-11T11:17:22.189Z,37.24
2023-05-11T11:19:54.771Z,37.59
2023-05-11T11:22:47.032Z,36.43
2023-05-11T11:25:53.189Z,36.66
2023-05-11T11:28:25.805Z,36.23
2023-05-11T11:31:19.230Z,35.57
2023-05-11T11:33:53.433Z,36.50
2023-05-11T11:36:52.352Z,35.65
2023-05-11T11:39:25.712Z,34.83
2023-05-11T11:42:04.076Z,36.72
2023-05-11T11:44:37.121Z,37.18
2023-05-11T11:47:16.513Z,35.89
2023-05-11T11:49:49.705Z,36.94
2023-05-11T11:55:46.160Z,34.69
2023-05-11T11:58:48.953Z,34.81
2023-05-11T12:01:21.938Z,34.83
2023-05-11T12:04:19.537Z,35.67
2023-05-11T12:06:59.027Z,35.39
2023-05-11T12:09:30.895Z,35.02
2023-05-11T12:12:03.879Z,35.03
2023-05-11T12:14:35.818Z,33.59
2023-05-11T12:21:01.474Z,32.92
2023-05-11T12:23:33.655Z,33.28
2023-05-11T12:26:06.229Z,33.34
2023-05-11T12:28:36.665Z,33.59
2023-05-11T12:31:11.382Z,33.21
2023-05-11T12:33:49.173Z,33.52
2023-05-11T12:36:21.264Z,33.85
2023-05-11T12:38:53.225Z,34.16
2023-05-11T12:41:25.817Z,33.55
2023-05-11T12:43:58.253Z,33.58
2023-05-11T12:46:30.345Z,33.60
2023-05-11T12:49:02.346Z,33.37
2023-05-11T12:51:49.091Z,33.26
2023-05-11T12:54:32.777Z,32.92
2023-05-11T12:57:05.794Z,32.95
2023-05-11T12:59:40.465Z,33.24
2023-05-11T13:02:14.768Z,33.03
2023-05-11T13:04:48.850Z,32.41
2023-05-11T13:07:28.993Z,32.04
2023-05-11T13:10:02.033Z,32.31
2023-05-11T13:12:34.460Z,32.20
2023-05-11T13:15:12.479Z,32.31
2023-05-11T13:17:45.459Z,32.05
2023-05-11T13:20:22.067Z,31.80
2023-05-11T13:23:03.981Z,32.00
2023-05-11T13:25:51.518Z,31.95
2023-05-11T13:28:25.322Z,32.40
2023-05-11T13:31:02.641Z,32.77
2023-05-11T13:33:34.624Z,32.74
2023-05-11T13:36:08.505Z,32.71
2023-05-11T13:38:40.823Z,32.33
2023-05-11T13:41:14.097Z,32.10
2023-05-11T13:43:46.003Z,31.61
2023-05-11T13:46:19.354Z,31.74
2023-05-11T13:48:51.322Z,31.19
2023-05-11T13:51:23.526Z,30.76
2023-05-11T13:53:55.694Z,30.92
2023-05-11T13:56:28.296Z,31.04
2023-05-11T13:58:59.997Z,31.31
2023-05-11T14:01:32.469Z,30.25
2023-05-11T14:04:04.638Z,30.19
2023-05-11T14:06:37.770Z,30.06
2023-05-11T14:09:10.149Z,30.29
2023-05-11T14:11:42.492Z,29.92
2023-05-11T14:14:14.325Z,29.52
2023-05-11T14:16:46.404Z,29.11
2023-05-11T14:19:18.337Z,29.24
2023-05-11T14:21:50.741Z,28.62
2023-05-11T14:24:22.558Z,28.41
2023-05-11T14:26:54.629Z,28.97
2023-05-11T14:29:26.727Z,29.27
2023-05-11T14:31:58.557Z,29.58
2023-05-11T14:34:30.505Z,30.08
2023-05-11T14:37:02.717Z,29.67
2023-05-11T14:39:34.539Z,29.70
2023-05-11T14:42:07.634Z,29.70
2023-05-11T14:44:39.485Z,29.61
2023-05-11T14:47:11.715Z,29.61
2023-05-11T14:49:43.885Z,30.00
2023-05-11T14:52:16.486Z,30.14
2023-05-11T14:54:46.760Z,29.68
2023-05-11T14:57:18.777Z,29.98
2023-05-11T14:59:59.717Z,30.15
2023-05-11T15:02:32.635Z,30.83
2023-05-11T15:05:04.829Z,30.46
2023-05-11T15:07:39.077Z,30.79
2023-05-11T15:10:11.596Z,30.29
2023-05-11T15:12:43.572Z,29.21
2023-05-11T15:15:15.531Z,29.35
2023-05-11T15:17:47.308Z,29.70
2023-05-11T15:20:19.896Z,29.27
2023-05-11T15:22:51.902Z,29.25
2023-05-11T15:25:23.933Z,28.95
2023-05-11T15:27:57.043Z,28.66
2023-05-11T15:30:30.915Z,28.79
2023-05-11T15:33:04.617Z,28.71
2023-05-11T15:35:38.088Z,28.31
2023-05-11T15:38:10.049Z,28.34
2023-05-11T15:40:41.788Z,27.82
2023-05-11T15:43:13.662Z,28.04
2023-05-11T15:45:45.653Z,27.74
2023-05-11T15:48:17.723Z,27.31
2023-05-11T15:50:49.522Z,27.28
2023-05-11T15:53:22.182Z,27.56
2023-05-11T15:55:55.548Z,28.24
2023-05-11T15:58:29.140Z,28.34
2023-05-11T16:01:01.405Z,27.82
2023-05-11T16:03:33.311Z,27.75
2023-05-11T16:06:07.198Z,28.10
2023-05-11T16:08:39.621Z,28.33
2023-05-11T16:11:09.956Z,28.53
2023-05-11T16:13:41.694Z,28.79
2023-05-11T16:16:13.509Z,28.47
2023-05-11T16:18:47.333Z,28.08
2023-05-11T16:21:19.221Z,27.62
2023-05-11T16:23:51.234Z,27.15
2023-05-11T16:26:23.167Z,26.89
2023-05-11T16:28:55.742Z,26.32
2023-05-11T16:31:27.515Z,26.30
2023-05-11T16:34:00.164Z,26.24
2023-05-11T16:36:33.346Z,26.13
2023-05-11T16:39:05.158Z,26.15
2023-05-11T16:41:36.911Z,26.34
2023-05-11T16:44:08.571Z,26.25
2023-05-11T16:46:40.408Z,26.32
2023-05-11T16:49:12.101Z,26.66
2023-05-11T16:51:44.353Z,26.98
2023-05-11T16:54:14.951Z,27.31
2023-05-11T16:56:46.901Z,28.36
2023-05-11T16:59:18.872Z,28.86
2023-05-11T17:01:50.713Z,29.00
2023-05-11T17:04:22.448Z,29.27
2023-05-11T17:06:54.764Z,29.64
2023-05-11T17:09:26.712Z,31.08
2023-05-11T17:11:58.602Z,30.63
2023-05-11T17:14:30.411Z,30.79
2023-05-11T17:17:04.095Z,31.18
2023-05-11T17:19:35.878Z,31.20
2023-05-11T17:22:08.325Z,31.63
2023-05-11T17:24:38.663Z,31.90
2023-05-11T17:27:10.510Z,31.96
2023-05-11T17:29:47.744Z,32.46
2023-05-11T17:32:20.021Z,32.58
2023-05-11T17:34:52.068Z,32.93
2023-05-11T17:37:31.899Z,33.05
2023-05-11T17:40:05.728Z,33.48
2023-05-11T17:42:37.633Z,33.11
2023-05-11T17:45:11.916Z,33.00
2023-05-11T17:47:43.860Z,40.12
2023-05-11T17:50:15.726Z,43.77
2023-05-11T17:52:50.683Z,42.88
2023-05-11T17:55:23.132Z,41.38
2023-05-11T17:57:55.070Z,39.34
2023-05-11T18:00:28.340Z,41.62
2023-05-11T18:03:00.651Z,41.26
2023-05-11T18:05:44.621Z,42.03
2023-05-11T18:08:20.180Z,39.26
2023-05-11T18:10:52.130Z,42.75
2023-05-11T18:13:24.858Z,41.56
2023-05-11T18:15:59.749Z,42.43
2023-05-11T18:18:31.904Z,44.40
2023-05-11T18:21:08.324Z,40.58
2023-05-11T18:23:40.228Z,43.59
2023-05-11T18:26:14.060Z,38.62
2023-05-11T18:28:45.751Z,45.97
2023-05-11T18:31:19.186Z,42.02
2023-05-11T18:33:51.185Z,43.49
2023-05-11T18:36:23.203Z,44.47
2023-05-11T18:38:55.226Z,44.46
2023-05-11T18:41:27.119Z,45.09
2023-05-11T18:44:00.319Z,43.58
2023-05-11T18:46:32.320Z,44.10
2023-05-11T18:49:04.359Z,45.15
2023-05-11T18:51:36.005Z,42.72
2023-05-11T18:54:08.122Z,43.89
2023-05-11T18:56:39.830Z,44.17
2023-05-11T18:59:11.533Z,43.11
2023-05-11T19:01:47.914Z,45.21
2023-05-11T19:04:21.971Z,45.29
2023-05-11T19:06:53.705Z,43.78
2023-05-11T19:09:25.427Z,44.82
2023-05-11T19:11:57.097Z,45.36
2023-05-11T19:14:29.114Z,45.32
2023-05-11T19:17:00.897Z,40.00
2023-05-11T19:19:32.617Z,39.74
2023-05-11T19:22:05.840Z,40.10
2023-05-11T19:24:38.665Z,40.37
2023-05-11T19:27:10.364Z,40.50
2023-05-11T19:29:42.619Z,40.80
2023-05-11T19:32:14.579Z,40.94
2023-05-11T19:34:46.708Z,41.21
2023-05-11T19:37:18.489Z,41.25
2023-05-11T19:39:50.229Z,41.52
2023-05-11T19:42:31.803Z,41.85
2023-05-11T19:45:12.355Z,41.83
2023-05-11T19:47:44.702Z,41.96
2023-05-11T19:50:18.494Z,42.11
2023-05-11T19:52:51.319Z,42.28
2023-05-11T19:55:23.325Z,42.51
2023-05-11T19:57:55.208Z,42.46
2023-05-11T20:00:27.359Z,42.39
2023-05-11T20:02:59.080Z,42.53
2023-05-11T20:05:31.140Z,42.76
2023-05-11T20:08:05.824Z,42.68
2023-05-11T20:10:38.069Z,42.90
2023-05-11T20:13:09.776Z,42.78
2023-05-11T20:15:41.664Z,42.82
2023-05-11T20:18:13.521Z,42.67
2023-05-11T20:20:45.365Z,42.86
2023-05-11T20:23:17.963Z,42.57
2023-05-11T20:25:50.385Z,42.90
2023-05-11T20:28:22.648Z,42.89
2023-05-11T20:30:55.333Z,42.94
2023-05-11T20:36:02.483Z,43.27
2023-05-11T20:38:34.524Z,43.05
2023-05-11T20:41:06.567Z,43.09
2023-05-11T20:43:39.013Z,43.11
2023-05-11T20:46:11.525Z,43.45
2023-05-11T20:48:46.859Z,43.39
2023-05-11T20:51:23.469Z,43.37
2023-05-11T20:53:55.259Z,43.30
2023-05-11T20:56:27.233Z,43.79
2023-05-11T20:58:59.227Z,44.06
2023-05-11T21:01:31.313Z,43.77
2023-05-11T21:04:03.337Z,44.03
2023-05-11T21:06:36.885Z,43.79
2023-05-11T21:09:09.043Z,43.83
2023-05-11T21:11:40.934Z,43.62
2023-05-11T21:14:12.700Z,43.85
2023-05-11T21:16:44.523Z,44.04
2023-05-11T21:19:16.989Z,44.06
2023-05-11T21:21:49.632Z,44.05
2023-05-11T21:24:21.552Z,44.69
2023-05-11T21:26:53.258Z,44.65
2023-05-11T21:29:24.966Z,44.62
2023-05-11T21:31:56.733Z,44.95
2023-05-11T21:34:28.751Z,44.76
2023-05-11T21:37:00.528Z,44.86
2023-05-11T21:39:32.241Z,44.72
2023-05-11T21:42:04.177Z,44.88
2023-05-11T21:44:35.877Z,45.17
2023-05-11T21:47:08.403Z,45.57
2023-05-11T21:49:40.745Z,45.57
2023-05-11T21:52:12.532Z,45.35
2023-05-11T21:54:44.251Z,45.21
2023-05-11T21:57:16.085Z,45.32
2023-05-11T21:59:49.444Z,45.29
2023-05-11T22:02:22.629Z,45.57
2023-05-11T22:04:54.390Z,45.59
2023-05-11T22:07:26.808Z,45.71
2023-05-11T22:09:58.541Z,45.89
2023-05-11T22:12:30.442Z,46.11
2023-05-11T22:15:02.248Z,46.30
2023-05-11T22:17:34.011Z,46.11
2023-05-11T22:20:07.392Z,46.08
2023-05-11T22:22:39.623Z,45.91
2023-05-11T22:25:12.641Z,45.82
2023-05-11T22:27:44.597Z,45.73
2023-05-11T22:30:16.831Z,46.00
2023-05-11T22:32:48.539Z,46.18
2023-05-11T22:35:21.148Z,46.09
2023-05-11T22:37:52.906Z,45.91
2023-05-11T22:40:24.843Z,45.83
2023-05-11T22:42:56.574Z,46.05
2023-05-11T22:45:28.719Z,46.10
2023-05-11T22:48:00.478Z,46.23
2023-05-11T22:50:32.598Z,45.88
2023-05-11T22:53:04.556Z,45.94
2023-05-11T22:55:37.571Z,45.99
2023-05-11T22:58:07.690Z,46.45
2023-05-11T23:00:39.489Z,46.47
2023-05-11T23:03:11.772Z,46.50
2023-05-11T23:05:43.688Z,46.56
2023-05-11T23:08:15.414Z,46.68
2023-05-11T23:10:47.034Z,46.83
2023-05-11T23:13:19.664Z,46.79
2023-05-11T23:15:51.804Z,46.92
2023-05-11T23:18:23.765Z,47.18
2023-05-11T23:20:59.338Z,47.36
2023-05-11T23:23:31.294Z,47.41
2023-05-11T23:26:02.984Z,47.45
2023-05-11T23:28:35.114Z,47.79
2023-05-11T23:31:07.395Z,47.14
2023-05-11T23:33:39.208Z,47.80
2023-05-11T23:36:12.120Z,47.91
2023-05-11T23:38:43.895Z,47.71
2023-05-11T23:41:15.538Z,47.79
2023-05-11T23:43:47.402Z,47.68
2023-05-11T23:46:19.579Z,47.72
2023-05-11T23:48:51.345Z,47.82
2023-05-11T23:51:23.278Z,47.92
2023-05-11T23:53:54.903Z,47.80
2023-05-11T23:56:26.858Z,47.80
2023-05-11T23:58:58.513Z,47.50
